Whtdeer, Pennsylvania
Current Conditions -  °F | °C
As of 3:54 AM on Sunday 26 Oct 2014 (Local Time) from KIPT Reporting Station
Clear Clear  
Wind Chill: 55°   Ceiling: Unl
Heat Index: 55°   Visibility: 10mi
Dew Point: 31°   Wind: 13mph
Humidity: 40%   Direction: 300°WNW
Pressure: 29.65"   Gusts: 21mph
Location:  41.0758°N, 76.8752°W
Report Text: KIPT 260754Z AUTO 30011G18KT 10SM CLR 13/M01 A2965 RMK AO2 PK WND 28027/0705 SLP038 T01281006
Loading
Personal Weather Stations






























Interactive Weather Map
Tropical Storm Tracking
New forecast layout! Learn more

10-Day Weather Forecast

Advertisements
Track Severe Weather on mobile